createdAt,value
2023-05-12T00:01:34.745Z,100204.16
2023-05-12T00:04:02.845Z,100204.81
2023-05-12T00:06:31.209Z,100208.50
2023-05-12T00:08:59.095Z,100210.34
2023-05-12T00:11:27.094Z,100202.09
2023-05-12T00:13:57.198Z,100200.13
2023-05-12T00:16:25.174Z,100210.00
2023-05-12T00:18:53.378Z,100201.59
2023-05-12T00:21:21.369Z,100203.13
2023-05-12T00:23:49.275Z,100206.47
2023-05-12T00:26:17.600Z,100202.63
2023-05-12T00:28:47.595Z,100190.53
2023-05-12T00:31:17.007Z,100190.00
2023-05-12T00:33:44.961Z,100200.72
2023-05-12T00:36:12.853Z,100208.97
2023-05-12T00:38:41.359Z,100209.44
2023-05-12T00:41:09.304Z,100206.06
2023-05-12T00:43:37.270Z,100201.69
2023-05-12T00:46:06.254Z,100209.38
2023-05-12T00:48:35.749Z,100212.38
2023-05-12T00:51:03.987Z,100213.69
2023-05-12T00:53:45.030Z,100210.34
2023-05-12T00:56:17.928Z,100212.31
2023-05-12T00:58:46.318Z,100209.75
2023-05-12T01:01:14.502Z,100207.06
2023-05-12T01:03:43.893Z,100202.53
2023-05-12T01:06:13.753Z,100210.75
2023-05-12T01:08:42.218Z,100202.00
2023-05-12T01:11:10.102Z,100211.53
2023-05-12T01:13:39.558Z,100209.16
2023-05-12T01:16:08.247Z,100198.91
2023-05-12T01:18:36.279Z,100209.50
2023-05-12T01:21:05.701Z,100210.94
2023-05-12T01:23:35.876Z,100201.06
2023-05-12T01:26:06.238Z,100202.53
2023-05-12T01:28:34.471Z,100204.53
2023-05-12T01:31:02.411Z,100199.75
2023-05-12T01:33:30.394Z,100206.25
2023-05-12T01:35:58.323Z,100199.00
2023-05-12T01:38:26.337Z,100197.47
2023-05-12T01:40:54.229Z,100195.72
2023-05-12T01:43:23.545Z,100191.34
2023-05-12T01:45:51.490Z,100200.84
2023-05-12T01:48:19.455Z,100198.91
2023-05-12T01:50:47.390Z,100197.84
2023-05-12T01:53:15.300Z,100203.53
2023-05-12T01:55:43.398Z,100203.84
2023-05-12T01:58:11.285Z,100198.41
2023-05-12T02:00:40.597Z,100203.06
2023-05-12T02:03:08.554Z,100201.00
2023-05-12T02:05:36.547Z,100200.34
2023-05-12T02:08:04.870Z,100200.88
2023-05-12T02:10:32.798Z,100195.84
2023-05-12T02:13:00.788Z,100194.44
2023-05-12T02:15:28.765Z,100196.75
2023-05-12T02:17:58.585Z,100195.91
2023-05-12T02:20:29.014Z,100195.06
2023-05-12T02:22:57.056Z,100198.44
2023-05-12T02:25:25.073Z,100195.75
2023-05-12T02:27:53.265Z,100208.59
2023-05-12T02:30:21.511Z,100202.94
2023-05-12T02:32:49.624Z,100205.16
2023-05-12T02:35:19.147Z,100199.81
2023-05-12T02:37:47.104Z,100199.66
2023-05-12T02:40:16.140Z,100197.81
2023-05-12T02:42:45.560Z,100201.44
2023-05-12T02:45:14.056Z,100205.66
2023-05-12T02:47:42.065Z,100203.66
2023-05-12T02:50:10.680Z,100214.75
2023-05-12T02:52:39.998Z,100210.38
2023-05-12T02:55:08.352Z,100213.75
2023-05-12T02:57:36.324Z,100209.78
2023-05-12T03:00:05.878Z,100214.00
2023-05-12T03:02:33.943Z,100216.91
2023-05-12T03:05:01.905Z,100220.53
2023-05-12T03:07:29.897Z,100230.75
2023-05-12T03:09:59.210Z,100233.72
2023-05-12T03:12:28.775Z,100231.81
2023-05-12T03:14:56.934Z,100229.84
2023-05-12T03:17:24.863Z,100231.94
2023-05-12T03:19:52.801Z,100224.41
2023-05-12T03:22:20.732Z,100230.22
2023-05-12T03:24:48.647Z,100233.53
2023-05-12T03:27:17.966Z,100238.63
2023-05-12T03:29:45.969Z,100250.50
2023-05-12T03:32:14.386Z,100245.53
2023-05-12T03:34:42.316Z,100244.59
2023-05-12T03:37:10.307Z,100256.06
2023-05-12T03:39:38.268Z,100252.06
2023-05-12T03:42:07.123Z,100248.47
2023-05-12T03:44:36.448Z,100250.16
2023-05-12T03:47:04.521Z,100256.81
2023-05-12T03:49:32.542Z,100253.41
2023-05-12T03:52:00.467Z,100249.47
2023-05-12T03:54:28.365Z,100257.06
2023-05-12T03:56:56.350Z,100260.97
2023-05-12T03:59:24.433Z,100260.66
2023-05-12T04:01:54.427Z,100264.06
2023-05-12T04:04:22.385Z,100261.03
2023-05-12T04:06:50.316Z,100264.09
2023-05-12T04:09:18.281Z,100272.16
2023-05-12T04:11:46.215Z,100268.66
2023-05-12T04:14:14.173Z,100271.22
2023-05-12T04:16:42.148Z,100272.91
2023-05-12T04:19:11.495Z,100266.19
2023-05-12T04:21:39.444Z,100274.59
2023-05-12T04:24:07.610Z,100276.44
2023-05-12T04:26:35.539Z,100285.72
2023-05-12T04:29:03.446Z,100284.09
2023-05-12T04:31:31.397Z,100288.81
2023-05-12T04:33:59.538Z,100276.31
2023-05-12T04:36:28.787Z,100286.78
2023-05-12T04:38:56.872Z,100284.63
2023-05-12T04:41:24.785Z,100283.28
2023-05-12T04:46:23.654Z,100277.75
2023-05-12T04:48:51.650Z,100283.78
2023-05-12T04:51:19.617Z,100287.47
2023-05-12T04:53:48.927Z,100286.09
2023-05-12T04:56:16.890Z,100290.41
2023-05-12T04:58:44.859Z,100293.47
2023-05-12T05:01:13.708Z,100294.09
2023-05-12T05:03:41.766Z,100299.50
2023-05-12T05:06:09.765Z,100299.50
2023-05-12T05:08:37.712Z,100307.63
2023-05-12T05:11:07.101Z,100305.25
2023-05-12T05:13:35.025Z,100306.34
2023-05-12T05:16:02.974Z,100301.56
2023-05-12T05:18:30.974Z,100260.66
2023-05-12T05:20:59.346Z,100306.44
2023-05-12T05:23:27.422Z,100306.09
2023-05-12T05:25:55.454Z,100305.63
2023-05-12T05:28:24.824Z,100309.94
2023-05-12T05:30:52.763Z,100311.13
2023-05-12T05:33:21.352Z,100304.53
2023-05-12T05:35:49.294Z,100314.09
2023-05-12T05:38:17.211Z,100311.50
2023-05-12T05:40:52.028Z,100317.38
2023-05-12T05:43:20.690Z,100310.22
2023-05-12T05:45:50.374Z,100311.31
2023-05-12T05:48:18.412Z,100315.13
2023-05-12T05:50:46.717Z,100309.38
2023-05-12T05:53:14.649Z,100308.44
2023-05-12T05:55:42.569Z,100315.13
2023-05-12T05:58:10.459Z,100311.59
2023-05-12T06:00:38.453Z,100279.75
2023-05-12T06:03:07.891Z,100313.84
2023-05-12T06:05:35.900Z,100311.31
2023-05-12T06:08:05.233Z,100310.03
2023-05-12T06:10:33.386Z,100308.34
2023-05-12T06:13:01.296Z,100314.19
2023-05-12T06:15:29.263Z,100316.97
2023-05-12T06:17:57.243Z,100314.69
2023-05-12T06:20:26.592Z,100308.69
2023-05-12T06:22:54.509Z,100315.00
2023-05-12T06:25:22.765Z,100318.78
2023-05-12T06:27:51.986Z,100312.78
2023-05-12T06:30:20.234Z,100310.91
2023-05-12T06:32:48.232Z,100313.31
2023-05-12T06:35:16.881Z,100313.84
2023-05-12T06:37:49.599Z,100316.94
2023-05-12T06:40:18.001Z,100325.56
2023-05-12T06:42:45.985Z,100318.25
2023-05-12T06:45:13.909Z,100317.06
2023-05-12T06:47:41.906Z,100316.97
2023-05-12T06:50:10.414Z,100318.16
2023-05-12T06:52:38.630Z,100313.63
2023-05-12T06:55:08.696Z,100317.66
2023-05-12T06:57:36.691Z,100325.25
2023-05-12T07:00:05.062Z,100319.09
2023-05-12T07:02:33.016Z,100316.88
2023-05-12T07:05:00.937Z,100320.75
2023-05-12T07:07:28.866Z,100316.13
2023-05-12T07:09:57.195Z,100320.38
2023-05-12T07:12:26.630Z,100316.25
2023-05-12T07:14:54.569Z,100312.28
2023-05-12T07:17:22.823Z,100313.38
2023-05-12T07:19:50.779Z,100319.06
2023-05-12T07:22:20.801Z,100311.78
2023-05-12T07:24:48.731Z,100316.19
2023-05-12T07:27:16.737Z,100318.06
2023-05-12T07:29:46.025Z,100317.44
2023-05-12T07:32:13.961Z,100316.41
2023-05-12T07:34:41.895Z,100318.91
2023-05-12T07:37:09.812Z,100321.41
2023-05-12T07:39:38.556Z,100314.53
2023-05-12T07:42:07.127Z,100316.81
2023-05-12T07:44:35.157Z,100316.81
2023-05-12T07:47:05.233Z,100317.22
2023-05-12T07:49:33.244Z,100317.88
2023-05-12T07:52:01.159Z,100320.59
2023-05-12T07:54:29.077Z,100323.09
2023-05-12T07:56:57.022Z,100318.22
2023-05-12T07:59:24.924Z,100312.53
2023-05-12T08:01:54.067Z,100320.44
2023-05-12T08:04:23.499Z,100316.50
2023-05-12T08:06:51.525Z,100320.53
2023-05-12T08:09:19.471Z,100319.91
2023-05-12T08:11:49.389Z,100318.66
2023-05-12T08:14:19.324Z,100321.34
2023-05-12T08:16:47.878Z,100323.25
2023-05-12T08:19:15.861Z,100315.81
2023-05-12T08:21:45.222Z,100318.59
2023-05-12T08:24:13.150Z,100316.63
2023-05-12T08:26:41.092Z,100317.31
2023-05-12T08:29:09.703Z,100315.38
2023-05-12T08:31:38.434Z,100313.59
2023-05-12T08:34:10.872Z,100310.66
2023-05-12T08:36:39.263Z,100320.91
2023-05-12T08:39:10.235Z,100313.69
2023-05-12T08:41:44.115Z,100314.31
2023-05-12T08:44:12.508Z,100318.66
2023-05-12T08:46:40.941Z,100306.41
2023-05-12T08:49:12.462Z,100305.50
2023-05-12T08:51:40.446Z,100301.03
2023-05-12T08:54:09.935Z,100308.94
2023-05-12T08:59:09.973Z,100311.72
2023-05-12T09:01:37.901Z,100306.28
2023-05-12T09:04:06.085Z,100306.75
2023-05-12T09:06:34.143Z,100300.34
2023-05-12T09:09:02.164Z,100303.41
2023-05-12T09:11:31.465Z,100301.34
2023-05-12T09:14:03.168Z,100302.75
2023-05-12T09:16:32.427Z,100287.38
2023-05-12T09:19:01.653Z,100303.00
2023-05-12T09:21:29.736Z,100305.59
2023-05-12T09:24:01.263Z,100300.25
2023-05-12T09:26:29.477Z,100286.75
2023-05-12T09:29:08.637Z,100293.59
2023-05-12T09:31:36.868Z,100300.97
2023-05-12T09:34:08.543Z,100296.94
2023-05-12T09:36:36.675Z,100296.50
2023-05-12T09:39:05.530Z,100301.03
2023-05-12T09:41:36.451Z,100301.78
2023-05-12T09:44:06.625Z,100303.53
2023-05-12T09:46:35.787Z,100301.69
2023-05-12T09:49:03.778Z,100292.31
2023-05-12T09:51:32.387Z,100302.94
2023-05-12T09:54:00.474Z,100298.00
2023-05-12T09:56:30.089Z,100299.09
2023-05-12T09:58:58.357Z,100290.44
2023-05-12T10:01:28.994Z,100286.41
2023-05-12T10:03:57.497Z,100292.28
2023-05-12T10:06:28.278Z,100291.13
2023-05-12T10:09:01.633Z,100289.28
2023-05-12T10:11:29.606Z,100291.03
2023-05-12T10:13:57.601Z,100293.03
2023-05-12T10:16:27.175Z,100290.91
2023-05-12T10:18:55.247Z,100294.00
2023-05-12T10:21:23.296Z,100297.59
2023-05-12T10:23:51.225Z,100297.38
2023-05-12T10:26:19.221Z,100290.47
2023-05-12T10:28:47.285Z,100291.16
2023-05-12T10:31:15.275Z,100289.22
2023-05-12T10:33:44.656Z,100277.84
2023-05-12T10:36:19.426Z,100281.84
2023-05-12T10:38:49.701Z,100281.16
2023-05-12T10:41:18.430Z,100284.31
2023-05-12T10:43:50.274Z,100281.09
2023-05-12T10:46:18.967Z,100279.78
2023-05-12T10:48:55.929Z,100273.00
2023-05-12T10:51:24.360Z,100273.50
2023-05-12T10:53:54.799Z,100274.09
2023-05-12T10:56:24.147Z,100273.09
2023-05-12T10:59:12.371Z,100270.72
2023-05-12T11:01:41.473Z,100270.38
2023-05-12T11:04:15.432Z,100277.09
2023-05-12T11:06:45.033Z,100274.03
2023-05-12T11:09:13.756Z,100280.31
2023-05-12T11:11:43.473Z,100267.63
2023-05-12T11:14:11.670Z,100267.03
2023-05-12T11:16:43.561Z,100276.19
2023-05-12T11:19:11.780Z,100265.13
2023-05-12T11:21:41.221Z,100278.56
2023-05-12T11:24:13.130Z,100269.75
2023-05-12T11:26:41.428Z,100272.25
2023-05-12T11:29:09.420Z,100264.91
2023-05-12T11:31:38.048Z,100259.31
2023-05-12T11:34:12.798Z,100246.25
2023-05-12T11:36:43.458Z,100250.19
2023-05-12T11:39:15.122Z,100248.63
2023-05-12T11:41:43.069Z,100255.47
2023-05-12T11:44:15.009Z,100252.78
2023-05-12T11:46:42.933Z,100245.28
2023-05-12T11:49:12.285Z,100246.97
2023-05-12T11:51:44.436Z,100246.00
2023-05-12T11:54:12.345Z,100246.63
2023-05-12T11:56:40.309Z,100245.50
2023-05-12T11:59:08.797Z,100257.03
2023-05-12T12:01:46.292Z,100248.84
2023-05-12T12:04:14.732Z,100245.00
2023-05-12T12:06:47.178Z,100246.66
2023-05-12T12:09:15.145Z,100236.00
2023-05-12T12:11:43.039Z,100249.00
2023-05-12T12:14:10.960Z,100240.91
2023-05-12T12:16:39.099Z,100242.34
2023-05-12T12:19:07.479Z,100244.28
2023-05-12T12:21:35.608Z,100237.19
2023-05-12T12:24:06.212Z,100233.19
2023-05-12T12:26:34.168Z,100236.28
2023-05-12T12:29:02.105Z,100227.81
2023-05-12T12:31:30.040Z,100231.50
2023-05-12T12:33:57.983Z,100229.19
2023-05-12T12:36:26.011Z,100233.81
2023-05-12T12:38:53.965Z,100233.44
2023-05-12T12:41:23.382Z,100230.97
2023-05-12T12:43:51.309Z,100219.56
2023-05-12T12:46:19.306Z,100217.81
2023-05-12T12:48:47.328Z,100227.56
2023-05-12T12:51:15.279Z,100230.81
2023-05-12T12:53:45.682Z,100222.72
2023-05-12T12:56:13.625Z,100230.88
2023-05-12T12:58:42.944Z,100217.00
2023-05-12T13:01:10.889Z,100223.97
2023-05-12T13:03:38.893Z,100221.72
2023-05-12T13:06:07.067Z,100219.53
2023-05-12T13:08:35.126Z,100215.25
2023-05-12T13:11:03.144Z,100214.72
2023-05-12T13:13:31.091Z,100216.69
2023-05-12T13:16:00.397Z,100212.75
2023-05-12T13:18:28.342Z,100214.69
2023-05-12T13:20:56.313Z,100211.59
2023-05-12T13:23:24.208Z,100203.25
2023-05-12T13:25:52.138Z,100205.03
2023-05-12T13:28:20.065Z,100202.72
2023-05-12T13:30:48.064Z,100198.47
2023-05-12T13:33:17.466Z,100197.63
2023-05-12T13:35:45.422Z,100200.75
2023-05-12T13:38:13.535Z,100200.28
2023-05-12T13:40:41.590Z,100202.56
2023-05-12T13:43:09.808Z,100193.88
2023-05-12T13:45:37.751Z,100199.34
2023-05-12T13:48:06.155Z,100190.09
2023-05-12T13:50:35.875Z,100186.78
2023-05-12T13:53:03.783Z,100183.50
2023-05-12T13:55:33.949Z,100184.09
2023-05-12T13:58:01.931Z,100188.81
2023-05-12T14:00:29.978Z,100193.47
2023-05-12T14:02:58.064Z,100185.63
2023-05-12T14:05:27.350Z,100187.84
2023-05-12T14:07:56.846Z,100186.13
2023-05-12T14:10:24.779Z,100196.31
2023-05-12T14:12:52.921Z,100199.09
2023-05-12T14:15:29.629Z,100186.25
2023-05-12T14:18:00.810Z,100194.31
2023-05-12T14:20:28.733Z,100196.75
2023-05-12T14:22:58.009Z,100191.03
2023-05-12T14:25:26.067Z,100196.84
2023-05-12T14:27:54.029Z,100197.06
2023-05-12T14:30:22.066Z,100198.13
2023-05-12T14:32:50.013Z,100203.03
2023-05-12T14:35:18.573Z,100196.47
2023-05-12T14:37:46.561Z,100200.38
2023-05-12T14:40:16.447Z,100197.50
2023-05-12T14:42:44.392Z,100200.06
2023-05-12T14:45:13.021Z,100201.44
2023-05-12T14:47:41.016Z,100193.31
2023-05-12T14:50:09.444Z,100201.53
2023-05-12T14:52:38.592Z,100203.38
2023-05-12T14:55:11.459Z,100203.38
2023-05-12T14:57:40.820Z,100206.94
2023-05-12T15:00:10.888Z,100204.56
2023-05-12T15:02:39.008Z,100208.97
2023-05-12T15:05:08.470Z,100196.88
2023-05-12T15:07:36.402Z,100203.31
2023-05-12T15:10:04.600Z,100205.97
2023-05-12T15:12:32.639Z,100196.50
2023-05-12T15:15:04.267Z,100199.31
2023-05-12T15:17:32.508Z,100195.97
2023-05-12T15:20:00.529Z,100200.47
2023-05-12T15:22:31.336Z,100195.09
2023-05-12T15:24:59.248Z,100196.97
2023-05-12T15:27:27.353Z,100196.84
2023-05-12T15:29:55.327Z,100188.41
2023-05-12T15:32:24.715Z,100190.47
2023-05-12T15:34:52.871Z,100198.50
2023-05-12T15:37:20.838Z,100188.81
2023-05-12T15:39:48.742Z,100189.81
2023-05-12T15:42:22.253Z,100176.88
2023-05-12T15:44:54.074Z,100183.84
2023-05-12T15:47:22.048Z,100184.63
2023-05-12T15:49:51.402Z,100174.84
2023-05-12T15:52:19.341Z,100190.19
2023-05-12T15:54:47.331Z,100182.19
2023-05-12T15:57:15.278Z,100186.41
2023-05-12T15:59:43.190Z,100190.44
2023-05-12T16:02:11.505Z,100189.22
2023-05-12T16:04:39.440Z,100189.03
2023-05-12T16:07:08.769Z,100188.72
2023-05-12T16:09:36.664Z,100182.88
2023-05-12T16:12:05.915Z,100196.53
2023-05-12T16:14:35.451Z,100195.09
2023-05-12T16:17:06.148Z,100194.03
2023-05-12T16:19:34.075Z,100194.25
2023-05-12T16:22:01.981Z,100193.03
2023-05-12T16:24:31.283Z,100193.44
2023-05-12T16:27:00.358Z,100203.09
2023-05-12T16:29:29.191Z,100206.09
2023-05-12T16:31:57.193Z,100209.84
2023-05-12T16:34:26.093Z,100209.84
2023-05-12T16:36:53.992Z,100214.03
2023-05-12T16:39:21.880Z,100207.53
2023-05-12T16:41:51.200Z,100204.41
2023-05-12T16:44:19.211Z,100208.13
2023-05-12T16:46:47.294Z,100217.75
2023-05-12T16:49:15.311Z,100216.03
2023-05-12T16:51:43.416Z,100224.38
2023-05-12T16:54:11.325Z,100216.03
2023-05-12T16:56:39.257Z,100216.84
2023-05-12T16:59:08.524Z,100213.69
2023-05-12T17:01:36.511Z,100210.53
2023-05-12T17:04:04.665Z,100214.22
2023-05-12T17:06:32.727Z,100218.78
2023-05-12T17:09:01.599Z,100223.09
2023-05-12T17:11:29.568Z,100223.00
2023-05-12T17:13:57.455Z,100226.91
2023-05-12T17:16:26.833Z,100226.88
2023-05-12T17:21:25.572Z,100226.28
2023-05-12T17:23:53.899Z,100233.03
2023-05-12T17:26:22.477Z,100238.13
2023-05-12T17:28:50.469Z,100238.44
2023-05-12T17:31:18.399Z,100246.06
2023-05-12T17:33:47.702Z,100245.84
2023-05-12T17:36:15.656Z,100247.19
2023-05-12T17:38:43.908Z,100249.19
2023-05-12T17:41:11.966Z,100249.50
2023-05-12T17:43:39.885Z,100249.31
2023-05-12T17:46:08.521Z,100249.06
2023-05-12T17:48:36.419Z,100254.66
2023-05-12T17:51:05.804Z,100260.84
2023-05-12T17:53:34.634Z,100259.63
2023-05-12T17:56:02.573Z,100264.09
2023-05-12T17:58:30.701Z,100271.28
2023-05-12T18:00:58.643Z,100279.25
2023-05-12T18:03:26.666Z,100277.84
2023-05-12T18:05:55.219Z,100277.19
2023-05-12T18:08:24.547Z,100281.19
2023-05-12T18:10:52.498Z,100288.34
2023-05-12T18:13:20.966Z,100281.66
2023-05-12T18:15:49.691Z,100290.09
2023-05-12T18:18:17.685Z,100283.38
2023-05-12T18:20:45.916Z,100290.81
2023-05-12T18:23:13.866Z,100289.81
2023-05-12T18:25:43.255Z,100291.56
2023-05-12T18:28:11.195Z,100299.66
2023-05-12T18:30:39.273Z,100302.66
2023-05-12T18:33:07.275Z,100305.38
2023-05-12T18:35:35.268Z,100306.31
2023-05-12T18:38:03.168Z,100308.91
2023-05-12T18:40:31.620Z,100301.09
2023-05-12T18:43:00.944Z,100310.00
2023-05-12T18:45:28.893Z,100312.50
2023-05-12T18:47:56.848Z,100322.94
2023-05-12T18:50:24.775Z,100318.47
2023-05-12T18:52:52.725Z,100328.09
2023-05-12T18:55:20.900Z,100325.88
2023-05-12T18:57:48.940Z,100330.41
2023-05-12T19:00:20.051Z,100338.53
2023-05-12T19:02:48.036Z,100333.44
2023-05-12T19:05:16.175Z,100341.31
2023-05-12T19:07:44.169Z,100340.97
2023-05-12T19:10:12.408Z,100346.63
2023-05-12T19:12:40.357Z,100343.22
2023-05-12T19:15:09.405Z,100342.56
2023-05-12T19:17:38.856Z,100341.13
2023-05-12T19:20:08.315Z,100345.81
2023-05-12T19:22:36.508Z,100355.13
2023-05-12T19:25:06.052Z,100345.91
2023-05-12T19:27:34.015Z,100349.53
2023-05-12T19:30:05.030Z,100342.81
2023-05-12T19:32:33.147Z,100347.50
2023-05-12T19:35:02.654Z,100350.47
2023-05-12T19:37:30.621Z,100350.66
2023-05-12T19:39:59.310Z,100346.63
2023-05-12T19:42:27.747Z,100342.06
2023-05-12T19:44:55.724Z,100341.03
2023-05-12T19:47:25.250Z,100336.66
2023-05-12T19:49:54.551Z,100342.16
2023-05-12T19:52:24.748Z,100340.56
2023-05-12T19:54:52.768Z,100334.53
2023-05-12T19:57:20.987Z,100333.31
2023-05-12T19:59:49.647Z,100332.16
2023-05-12T20:02:17.915Z,100335.00
2023-05-12T20:04:45.941Z,100341.06
2023-05-12T20:07:13.872Z,100341.41
2023-05-12T20:09:43.302Z,100341.59
2023-05-12T20:12:11.369Z,100346.91
2023-05-12T20:14:39.457Z,100348.28
2023-05-12T20:17:07.785Z,100351.06
2023-05-12T20:19:35.822Z,100341.44
2023-05-12T20:22:03.756Z,100342.78
2023-05-12T20:24:31.688Z,100346.13
2023-05-12T20:27:01.022Z,100334.84
2023-05-12T20:29:30.271Z,100337.25
2023-05-12T20:31:58.200Z,100334.06
2023-05-12T20:34:26.101Z,100329.59
2023-05-12T20:36:54.060Z,100329.59
2023-05-12T20:39:22.025Z,100325.91
2023-05-12T20:41:50.137Z,100321.56
2023-05-12T20:44:20.081Z,100315.91
2023-05-12T20:46:48.104Z,100315.56
2023-05-12T20:49:16.073Z,100322.66
2023-05-12T20:51:43.986Z,100311.25
2023-05-12T20:54:11.944Z,100307.97
2023-05-12T20:56:39.912Z,100308.38
2023-05-12T20:59:07.978Z,100305.84
2023-05-12T21:01:37.255Z,100308.72
2023-05-12T21:04:05.398Z,100309.13
2023-05-12T21:06:33.876Z,100311.84
2023-05-12T21:09:01.848Z,100307.16
2023-05-12T21:11:29.778Z,100304.19
2023-05-12T21:13:58.198Z,100309.81
2023-05-12T21:16:26.488Z,100303.56
2023-05-12T21:18:56.154Z,100312.88
2023-05-12T21:21:24.094Z,100313.09
2023-05-12T21:23:51.990Z,100314.78
2023-05-12T21:26:19.897Z,100315.47
2023-05-12T21:28:47.808Z,100322.63
2023-05-12T21:31:15.736Z,100320.06
2023-05-12T21:33:43.640Z,100322.63
2023-05-12T21:36:12.944Z,100324.47
2023-05-12T21:38:40.885Z,100322.25
2023-05-12T21:41:08.867Z,100324.66
2023-05-12T21:43:36.807Z,100321.31
2023-05-12T21:46:05.003Z,100324.53
2023-05-12T21:48:33.390Z,100332.28
2023-05-12T21:51:01.636Z,100332.47
2023-05-12T21:53:31.069Z,100334.53
2023-05-12T21:55:59.042Z,100323.97
2023-05-12T21:58:28.276Z,100331.50
2023-05-12T22:00:56.405Z,100332.72
2023-05-12T22:03:25.432Z,100330.53
2023-05-12T22:05:53.401Z,100335.91
2023-05-12T22:08:21.319Z,100321.94
2023-05-12T22:10:50.626Z,100331.53
2023-05-12T22:13:19.147Z,100321.78
2023-05-12T22:15:47.203Z,100334.75
2023-05-12T22:18:15.143Z,100328.16
2023-05-12T22:20:43.024Z,100331.22
2023-05-12T22:23:10.946Z,100322.13
2023-05-12T22:25:39.072Z,100326.50
2023-05-12T22:28:08.378Z,100322.13
2023-05-12T22:30:36.297Z,100323.78
2023-05-12T22:33:04.208Z,100329.53
2023-05-12T22:35:32.246Z,100322.63
2023-05-12T22:38:00.430Z,100330.53
2023-05-12T22:40:28.381Z,100319.56
2023-05-12T22:42:56.294Z,100317.53
2023-05-12T22:45:25.977Z,100316.34
2023-05-12T22:47:54.006Z,100322.34
2023-05-12T22:50:22.409Z,100308.91
2023-05-12T22:52:50.439Z,100313.22
2023-05-12T22:55:18.371Z,100318.72
2023-05-12T22:57:46.467Z,100313.72
2023-05-12T23:00:15.405Z,100324.22
2023-05-12T23:02:44.703Z,100319.53
2023-05-12T23:05:12.654Z,100313.47
2023-05-12T23:07:40.633Z,100321.34
2023-05-12T23:10:09.675Z,100310.06
2023-05-12T23:12:37.654Z,100313.25
2023-05-12T23:15:05.957Z,100312.84
2023-05-12T23:17:33.882Z,100313.59
2023-05-12T23:20:03.184Z,100301.81
2023-05-12T23:22:31.193Z,100302.81
2023-05-12T23:24:59.366Z,100299.75
2023-05-12T23:27:27.314Z,100302.38
2023-05-12T23:29:55.257Z,100303.22
2023-05-12T23:32:23.498Z,100294.66
2023-05-12T23:34:51.694Z,100294.22
2023-05-12T23:37:20.988Z,100283.59
2023-05-12T23:39:49.055Z,100289.00
2023-05-12T23:42:17.285Z,100283.59
2023-05-12T23:44:45.197Z,100286.72
2023-05-12T23:47:13.109Z,100287.78
2023-05-12T23:49:41.056Z,100290.25
2023-05-12T23:52:08.984Z,100285.44
2023-05-12T23:54:38.241Z,100282.38
2023-05-12T23:57:06.496Z,100284.94
2023-05-12T23:59:34.465Z,100283.56
